Latest Weather Observations for Archerfield

IDQ60901

Issued at 10:21 pm EST Saturday 25 April 2015 (issued every 10 minutes, with the page automatically refreshed every 10 minutes)

About weather observations | Map of Brisbane area stations | Latest observations for Brisbane area | Other Formats
Station Details ID: 040211 Name: ARCHERFIELD AIRPORT Lat: -27.57 Lon: 153.01 Height: 12.5 m
Data from the previous 72 hours. | See also: Recent months at Archerfield
Date/Time
EST
Tmp

°C
App
Tmp
°C
Dew
Point
°C
Rel
Hum
%
Delta-T

°C
Wind Press
QNH
hPa
Press
MSL
hPa
Rain
since
9 am
mm
Dir
 
Spd
km/h
Gust
km/h
Spd
kts
Gust
kts
25/10:00pm 20.0 19.7 14.4 70 3.3 N 9 9 5 5 1009.3 1009.2 0.0
25/09:30pm 20.6 19.7 14.9 70 3.4 N 13 19 7 10 1009.5 1009.4 0.0
25/09:00pm 21.0 21.3 14.9 68 3.6 N 7 11 4 6 1009.5 1009.4 0.0
25/08:30pm 20.3 19.6 14.4 69 3.4 N 11 15 6 8 1009.4 1009.3 0.0
25/08:00pm 20.6 19.9 14.3 67 3.7 N 11 15 6 8 1009.3 1009.2 0.0
25/07:30pm 21.3 20.2 14.2 64 4.1 N 13 17 7 9 1009.1 1009.0 0.0
25/07:00pm 21.8 21.3 13.9 61 4.6 N 9 15 5 8 1008.8 1008.7 0.0
25/06:30pm 21.3 20.3 13.5 61 4.5 N 11 13 6 7 1008.4 1008.3 0.0
25/06:00pm 21.9 20.7 12.7 56 5.2 NE 11 15 6 8 1008.0 1007.9 0.0
25/05:30pm 22.7 21.4 12.6 53 5.8 NE 11 13 6 7 1007.7 1007.6 0.0
25/05:00pm 24.6 22.5 12.5 46 7.0 NE 15 20 8 11 1007.5 1007.4 0.0
25/04:30pm 26.5 24.0 12.2 41 8.2 N 17 20 9 11 1007.4 1007.3 0.0
25/04:00pm 28.3 26.9 9.6 31 10.4 NNW 7 13 4 7 1007.3 1007.2 0.0
25/03:30pm 28.5 26.8 9.7 31 10.5 NW 9 15 5 8 1007.3 1007.2 0.0
25/03:00pm 28.7 27.0 9.9 31 10.6 WNW 9 15 5 8 1007.5 1007.4 0.0
25/02:30pm 28.3 26.2 8.1 28 11.0 NW 9 15 5 8 1007.5 1007.4 0.0
25/02:00pm 28.7 26.9 10.8 33 10.2 W 11 19 6 10 1007.7 1007.6 0.0
25/01:30pm 28.0 25.0 7.8 28 10.9 WSW 13 17 7 9 1008.0 1007.9 0.0
25/01:00pm 28.3 25.4 8.1 28 11.0 W 13 20 7 11 1008.3 1008.2 0.0
25/12:30pm 27.6 24.8 9.9 33 9.9 W 15 20 8 11 1008.8 1008.7 0.0
25/12:00pm 26.5 24.1 11.4 39 8.6 WSW 15 20 8 11 1009.2 1009.1 0.0
25/11:30am 26.2 25.1 11.9 41 8.2 WSW 9 15 5 8 1009.6 1009.5 0.0
25/11:00am 26.0 25.1 13.8 47 7.2 WSW 11 17 6 9 1010.2 1010.1 0.0
25/10:30am 24.8 23.6 14.0 51 6.4 WSW 13 17 7 9 1010.5 1010.4 0.0
25/10:00am 23.0 22.7 14.3 58 5.1 WSW 9 15 5 8 1010.9 1010.8 0.0
25/09:30am 22.1 21.5 14.7 63 4.4 WSW 11 13 6 7 1011.2 1011.1 0.0
25/08:30am 19.4 19.4 15.1 76 2.5 SW 9 13 5 7 1011.3 1011.2 0.0
25/08:00am 17.9 18.2 14.6 81 1.9 SW 6 11 3 6 1011.3 1011.2 0.0
25/07:30am 16.5 16.9 13.8 84 1.5 SSW 4 7 2 4 1011.1 1011.0 0.0
25/07:00am 15.4 16.6 13.8 90 0.9 CALM 0 0 0 0 1010.8 1010.7 0.0
25/06:30am 13.2 13.8 11.9 92 0.7 CALM 0 0 0 0 1010.6 1010.5 0.0
25/05:30am 14.0 14.9 12.9 93 0.6 CALM 0 0 0 0 1010.1 1010.0 0.0
25/05:00am 13.3 13.5 11.7 90 0.9 SW 2 6 1 3 1009.9 1009.8 0.0
25/04:30am 15.3 15.1 13.7 90 0.9 S 7 9 4 5 1009.6 1009.5 0.0
25/04:00am 14.7 14.8 12.7 88 1.1 SSE 4 6 2 3 1009.5 1009.4 0.0
25/03:30am 15.6 15.4 13.6 88 1.1 S 7 9 4 5 1009.5 1009.4 0.0
25/03:00am 15.9 15.8 13.9 88 1.1 SSW 7 11 4 6 1009.4 1009.3 0.0
25/02:30am 15.9 16.0 14.4 91 0.9 SSW 7 9 4 5 1009.6 1009.5 0.0
25/02:00am 15.5 15.4 14.0 91 0.8 S 7 7 4 4 1009.6 1009.5 0.0
25/01:30am 15.8 16.0 14.3 91 0.9 S 6 7 3 4 1009.6 1009.5 0.0
25/01:00am 15.9 16.0 14.4 91 0.9 S 7 9 4 5 1009.6 1009.5 0.0
25/12:30am 16.9 16.8 14.9 88 1.2 S 9 9 5 5 1009.7 1009.6 0.0
25/12:00am 17.3 17.8 15.1 87 1.3 SSW 6 7 3 4 1009.8 1009.7 0.0
 
Date/Time
EST
Tmp

°C
App
Tmp
°C
Dew
Point
°C
Rel
Hum
%
Delta-T

°C
Wind Press
QNH
hPa
Press
MSL
hPa
Rain
since
9 am
mm
Dir
 
Spd
km/h
Gust
km/h
Spd
kts
Gust
kts
24/11:30pm 17.9 19.5 14.8 82 1.8 CALM 0 0 0 0 1009.9 1009.8 0.0
24/11:00pm 17.9 17.6 14.4 80 2.0 N 9 11 5 6 1009.8 1009.7 0.0
24/10:30pm 18.3 18.6 15.0 81 1.9 N 7 9 4 5 1009.8 1009.7 0.0
24/10:00pm 19.4 19.1 15.5 78 2.3 N 11 15 6 8 1009.9 1009.8 0.0
24/09:30pm 20.0 19.4 15.6 76 2.6 N 13 15 7 8 1010.1 1010.0 0.0
24/09:00pm 19.2 19.2 15.1 77 2.4 N 9 15 5 8 1010.0 1009.9 0.0
24/08:30pm 19.6 19.4 15.7 78 2.3 NNE 11 15 6 8 1009.8 1009.7 0.0
24/08:00pm 19.9 19.8 16.0 78 2.3 N 11 17 6 9 1009.6 1009.5 0.0
24/07:30pm 20.1 20.0 16.1 78 2.4 N 11 13 6 7 1009.3 1009.2 0.0
24/07:00pm 20.1 19.6 15.9 77 2.5 N 13 15 7 8 1009.0 1008.9 0.0
24/06:30pm 21.0 20.2 16.0 73 3.0 NNE 15 19 8 10 1008.7 1008.6 0.0
24/06:00pm 21.2 20.4 16.0 72 3.1 NNE 15 20 8 11 1008.2 1008.1 0.0
24/05:30pm 22.7 22.1 13.5 56 5.3 NE 9 11 5 6 1007.8 1007.7 0.0
24/05:00pm 24.9 25.7 13.8 50 6.5 NNE 2 7 1 4 1007.5 1007.4 0.0
24/04:30pm 26.5 26.4 13.3 44 7.8 ENE 6 7 3 4 1007.4 1007.3 0.0
24/04:00pm 26.8 27.0 13.2 43 8.0 NE 4 7 2 4 1007.4 1007.3 0.0
24/03:30pm 26.6 25.9 13.3 43 7.8 S 9 13 5 7 1007.4 1007.3 0.0
24/03:00pm 27.0 25.5 13.0 42 8.2 WSW 13 22 7 12 1007.4 1007.3 0.0
24/02:30pm 27.0 26.0 13.4 43 8.0 SW 11 20 6 11 1007.5 1007.4 0.0
24/02:00pm 26.8 25.1 13.5 44 7.9 W 15 20 8 11 1007.6 1007.5 0.0
24/01:30pm 26.7 25.8 14.8 48 7.2 W 13 19 7 10 1007.9 1007.8 0.0
24/01:00pm 26.2 25.0 14.0 47 7.3 WSW 13 20 7 11 1008.1 1008.0 0.0
24/12:30pm 25.8 23.6 14.3 49 6.8 W 19 24 10 13 1008.8 1008.7 0.0
24/12:00pm 24.9 23.5 14.4 52 6.2 SW 15 22 8 12 1009.1 1009.0 0.0
24/11:30am 24.4 22.9 14.2 53 6.0 WSW 15 24 8 13 1009.9 1009.8 0.0
24/11:00am 24.0 23.6 15.2 58 5.3 WSW 11 15 6 8 1010.4 1010.3 0.0
24/10:30am 22.2 20.6 13.8 59 4.9 WSW 15 20 8 11 1010.9 1010.8 0.0
24/10:00am 22.1 20.9 14.0 60 4.7 WSW 13 19 7 10 1010.9 1010.8 0.0
24/09:30am 20.9 19.8 15.4 71 3.3 WSW 15 19 8 10 1011.3 1011.2 0.0
24/09:00am 19.8 18.9 14.8 73 2.9 WSW 13 17 7 9 1011.2 1011.1 0.0
24/08:30am 18.1 17.6 14.8 81 1.9 WSW 11 17 6 9 1011.5 1011.4 0.0
24/08:00am 17.4 17.6 14.7 84 1.6 WSW 7 11 4 6 1011.4 1011.3 0.0
24/07:30am 16.7 17.0 14.9 89 1.0 SW 7 9 4 5 1011.3 1011.2 0.0
24/07:00am 15.8 17.2 14.3 91 0.9 CALM 0 0 0 0 1010.7 1010.6 0.0
24/06:30am 15.0 15.0 13.7 92 0.7 SSW 6 7 3 4 1010.7 1010.6 0.0
24/06:00am 14.9 15.0 13.8 93 0.6 SSW 6 6 3 3 1010.4 1010.3 0.0
24/05:30am 14.5 15.6 13.5 94 0.6 CALM 0 0 0 0 1010.2 1010.1 0.0
24/05:00am 13.9 14.7 12.5 91 0.8 CALM 0 0 0 0 1009.9 1009.8 0.0
24/04:30am 14.5 14.4 13.2 92 0.7 SSE 6 7 3 4 1009.9 1009.8 0.0
24/04:00am 14.7 15.8 13.4 92 0.7 CALM 0 0 0 0 1010.1 1010.0 0.0
24/03:30am 14.6 14.5 13.3 92 0.7 S 6 7 3 4 1010.1 1010.0 0.0
24/03:00am 14.8 15.8 13.3 91 0.8 CALM 0 0 0 0 1010.1 1010.0 0.0
24/02:30am 15.4 15.5 13.8 90 0.9 SSE 6 7 3 4 1010.1 1010.0 0.0
24/02:00am 15.1 14.5 13.6 91 0.8 SSW 9 9 5 5 1010.4 1010.3 0.0
24/01:30am 15.6 15.7 14.0 90 0.9 S 6 7 3 4 1010.5 1010.4 0.0
24/01:00am 15.0 14.8 13.7 92 0.7 SW 7 9 4 5 1010.8 1010.7 0.0
24/12:30am 15.4 15.3 13.8 90 0.9 S 7 9 4 5 1010.9 1010.8 0.0
24/12:00am 15.7 16.9 13.9 89 1.0 CALM 0 0 0 0 1010.9 1010.8 0.0
 
Date/Time
EST
Tmp

°C
App
Tmp
°C
Dew
Point
°C
Rel
Hum
%
Delta-T

°C
Wind Press
QNH
hPa
Press
MSL
hPa
Rain
since
9 am
mm
Dir
 
Spd
km/h
Gust
km/h
Spd
kts
Gust
kts
23/11:30pm 15.5 15.9 13.7 89 1.0 SSE 4 6 2 3 1011.1 1011.0 0.0
23/11:00pm 15.7 15.9 14.1 90 0.9 S 6 7 3 4 1011.3 1011.2 0.0
23/10:30pm 16.3 16.4 14.5 89 1.0 S 7 9 4 5 1011.3 1011.2 0.0
23/10:00pm 15.7 15.5 13.5 87 1.2 S 7 7 4 4 1011.4 1011.3 0.0
23/09:30pm 16.4 17.6 13.7 84 1.5 CALM 0 0 0 0 1011.4 1011.3 0.0
23/09:00pm 17.4 18.8 14.5 83 1.7 CALM 0 0 0 0 1011.3 1011.2 0.0
23/08:30pm 18.5 18.7 14.8 79 2.2 NE 7 9 4 5 1011.1 1011.0 0.0
23/08:00pm 17.2 17.1 13.9 81 1.9 NNE 7 9 4 5 1011.0 1010.9 0.0
23/07:30pm 17.1 16.6 12.8 76 2.4 NNE 7 9 4 5 1011.0 1010.9 0.0
23/07:00pm 18.4 17.9 13.9 75 2.6 NE 9 11 5 6 1010.6 1010.5 0.0
23/06:30pm 18.6 18.0 13.5 72 2.9 NE 9 13 5 7 1010.5 1010.4 0.0
23/06:00pm 18.7 17.5 12.9 69 3.3 NE 11 15 6 8 1009.9 1009.8 0.0
23/05:30pm 20.1 19.0 12.1 60 4.5 NE 9 13 5 7 1009.6 1009.5 0.0
23/05:00pm 23.6 23.2 9.9 42 7.5 SSE 2 7 1 4 1009.3 1009.2 0.0
23/04:30pm 24.1 22.4 10.0 41 7.7 SSE 9 13 5 7 1009.1 1009.0 0.0
23/04:00pm 24.8 23.7 9.9 39 8.2 SSW 6 11 3 6 1009.1 1009.0 0.0
23/03:30pm 25.3 24.8 10.7 40 8.2 W 4 9 2 5 1009.2 1009.1 0.0
23/03:00pm 24.7 23.8 9.4 38 8.3 NE 4 7 2 4 1009.3 1009.2 0.0
23/02:30pm 25.1 23.4 9.8 38 8.4 WNW 9 15 5 8 1009.5 1009.4 0.0
23/02:00pm 25.2 24.1 10.6 40 8.2 SSW 7 13 4 7 1009.6 1009.5 0.0
23/01:30pm 24.7 23.7 10.2 40 8.0 WSW 6 15 3 8 1010.0 1009.9 0.0
23/01:00pm 23.9 22.1 10.9 44 7.2 WSW 11 15 6 8 1010.6 1010.5 0.0
23/12:30pm 24.5 23.2 12.5 47 6.9 WNW 11 15 6 8 1011.1 1011.0 0.0
23/12:00pm 23.5 22.9 12.2 49 6.4 WSW 7 11 4 6 1011.6 1011.5 0.0
23/11:30am 23.2 21.9 12.5 51 6.1 WSW 11 17 6 9 1012.1 1012.0 0.0
23/11:00am 22.7 21.1 12.9 54 5.6 WSW 13 19 7 10 1012.5 1012.4 0.0
23/10:30am 21.9 20.2 12.5 55 5.3 SW 13 19 7 10 1012.9 1012.8 0.0
23/10:00am 20.8 19.2 11.7 56 5.1 SW 11 15 6 8 1013.1 1013.0 0.0
23/09:30am 19.5 17.4 11.0 58 4.6 SW 13 17 7 9 1013.2 1013.1 0.0
23/09:00am 18.5 16.6 11.8 65 3.7 SW 13 17 7 9 1013.4 1013.3 0.0
23/08:30am 17.7 15.8 11.7 68 3.3 WSW 13 17 7 9 1013.4 1013.3 0.0
23/08:00am 16.6 14.9 12.4 76 2.3 SW 13 19 7 10 1013.5 1013.4 0.0
23/07:30am 15.0 12.9 11.2 78 2.0 SW 13 15 7 8 1013.2 1013.1 0.0
23/07:00am 13.5 11.9 10.3 81 1.7 S 9 11 5 6 1013.1 1013.0 0.0
23/06:30am 12.0 10.3 9.9 87 1.1 SSW 9 13 5 7 1013.1 1013.0 0.0
23/06:00am 11.5 9.7 9.6 88 1.0 S 9 11 5 6 1012.8 1012.7 0.0
23/05:30am 11.5 10.0 9.2 86 1.2 S 7 9 4 5 1012.3 1012.2 0.0
23/05:00am 11.6 9.8 9.3 86 1.2 S 9 9 5 5 1012.0 1011.9 0.0
23/04:30am 12.0 10.6 9.4 84 1.3 S 7 9 4 5 1011.7 1011.6 0.0
23/04:00am 12.3 11.0 9.9 85 1.2 SSW 7 9 4 5 1011.4 1011.3 0.0
23/03:30am 11.9 10.1 9.3 84 1.3 SW 9 11 5 6 1011.5 1011.4 0.0
23/03:00am 12.2 10.1 9.6 84 1.3 SW 11 13 6 7 1011.4 1011.3 0.0
23/02:30am 12.0 10.2 9.4 84 1.3 SSW 9 13 5 7 1011.6 1011.5 0.0
23/02:00am 12.6 11.2 9.6 82 1.5 SW 7 9 4 5 1011.9 1011.8 0.0
23/01:30am 13.2 11.9 9.8 80 1.7 SW 7 9 4 5 1012.2 1012.1 0.0
23/01:00am 13.4 12.3 10.0 80 1.8 SW 6 9 3 5 1012.5 1012.4 0.0
23/12:30am 13.2 11.1 9.8 80 1.7 WSW 11 13 6 7 1012.5 1012.4 0.0
23/12:00am 13.9 12.3 10.1 78 2.0 SW 9 13 5 7 1012.8 1012.7 0.0
 
Date/Time
EST
Tmp

°C
App
Tmp
°C
Dew
Point
°C
Rel
Hum
%
Delta-T

°C
Wind Press
QNH
hPa
Press
MSL
hPa
Rain
since
9 am
mm
Dir
 
Spd
km/h
Gust
km/h
Spd
kts
Gust
kts
22/11:30pm 14.3 13.0 10.1 76 2.2 SW 7 11 4 6 1013.1 1013.0 0.0
22/11:00pm 14.4 12.7 10.0 75 2.3 SW 9 13 5 7 1013.2 1013.1 0.0
22/10:30pm 14.5 12.8 9.9 74 2.4 WSW 9 11 5 6 1013.6 1013.5 0.0

Latest Capital City Observations: Canberra | Sydney | Melbourne | Brisbane | Adelaide | Perth | Hobart | Darwin

Other Formats:

Comma delimited format used in spreadsheet applications
http://www.bom.gov.au/fwo/IDQ60901/IDQ60901.94575.axf

JavaScript Object Notation format (JSON) in row-major order
http://www.bom.gov.au/fwo/IDQ60901/IDQ60901.94575.json